Time;durP1;ratioP1;P1;durP2;ratioP2;P2;SDS_P1;SDS_P2;PMS_P1;PMS_P2;Temp;Humidity;BMP_temperature;BMP_pressure;BME280_temperature;BME280_humidity;BME280_pressure;Samples;Min_cycle;Max_cycle;Signal;HPM_P1;HPM_P2
2020/12/15 00:02:21;;;;;;;19.97;10.23;;;;;;;2.94;100.00;100660.88;5043970;28;20041;-69
2020/12/15 00:04:47;;;;;;;20.13;12.17;;;;;;;2.94;100.00;100660.00;5038746;28;20037;-69
2020/12/15 00:07:14;;;;;;;19.87;11.77;;;;;;;2.93;100.00;100650.44;5044680;28;20098;-69
2020/12/15 00:09:40;;;;;;;16.07;9.23;;;;;;;2.87;100.00;100653.88;5040370;28;20091;-69
2020/12/15 00:12:06;;;;;;;20.37;10.80;;;;;;;2.88;100.00;100654.75;5033104;28;20049;-69
2020/12/15 00:14:32;;;;;;;18.33;10.83;;;;;;;2.89;100.00;100643.44;5037279;28;20040;-69
2020/12/15 00:16:58;;;;;;;18.57;10.30;;;;;;;2.85;100.00;100646.88;5034017;28;20448;-69
2020/12/15 00:19:25;;;;;;;18.17;10.53;;;;;;;2.84;100.00;100646.00;5033928;28;20695;-69
2020/12/15 00:21:53;;;;;;;22.10;12.23;;;;;;;2.85;100.00;100631.22;5034799;28;20440;-69
2020/12/15 00:24:19;;;;;;;20.40;10.93;;;;;;;2.86;100.00;100639.06;5035293;28;20118;-69
2020/12/15 00:26:45;;;;;;;22.90;11.57;;;;;;;2.86;100.00;100646.00;5045755;28;20037;-68
2020/12/15 00:29:13;;;;;;;19.03;11.10;;;;;;;2.83;100.00;100633.81;5038690;28;20087;-69
2020/12/15 00:31:39;;;;;;;18.77;11.33;;;;;;;2.84;100.00;100625.13;5041211;28;20052;-69
2020/12/15 00:34:05;;;;;;;22.30;12.17;;;;;;;2.82;100.00;100617.28;5041145;28;20041;-69
2020/12/15 00:36:31;;;;;;;20.70;12.20;;;;;;;2.81;100.00;100606.84;5044425;28;20052;-69
2020/12/15 00:38:58;;;;;;;21.37;12.73;;;;;;;2.85;100.00;100618.16;5038724;28;20041;-69
2020/12/15 00:41:24;;;;;;;22.63;12.03;;;;;;;2.82;100.00;100619.88;5026340;28;20065;-69
2020/12/15 00:43:50;;;;;;;22.43;13.43;;;;;;;2.81;100.00;100620.75;5037749;28;20036;-69
2020/12/15 00:46:16;;;;;;;18.40;11.13;;;;;;;2.76;100.00;100627.66;5039526;28;20088;-69
2020/12/15 00:48:43;;;;;;;24.67;13.57;;;;;;;2.79;100.00;100624.22;5024049;28;20041;-69
2020/12/15 00:51:17;;;;;;;21.20;12.47;;;;;;;2.76;100.00;100621.56;5036573;28;20049;-69
2020/12/15 00:53:44;;;;;;;21.88;12.65;;;;;;;2.77;100.00;100626.78;5044176;28;20040;-69
2020/12/15 00:56:11;;;;;;;22.43;13.17;;;;;;;2.75;100.00;100627.63;5040560;28;20065;-68
2020/12/15 00:58:38;;;;;;;20.67;12.73;;;;;;;2.77;100.00;100637.22;5038593;28;20039;-69
2020/12/15 01:01:05;;;;;;;22.63;12.87;;;;;;;2.81;100.00;100633.78;5043215;28;20047;-69
2020/12/15 01:03:32;;;;;;;21.40;12.87;;;;;;;2.81;100.00;100632.94;5043413;28;20041;-69
2020/12/15 01:05:58;;;;;;;23.20;12.87;;;;;;;2.81;100.00;100632.94;5041987;28;20067;-69
2020/12/15 01:08:24;;;;;;;22.33;12.27;;;;;;;2.78;100.00;100639.00;5036348;28;20041;-69
2020/12/15 01:10:51;;;;;;;23.23;12.70;;;;;;;2.80;100.00;100628.56;5036433;28;20429;-69
2020/12/15 01:13:18;;;;;;;21.67;12.30;;;;;;;2.79;100.00;100635.53;5037671;28;20108;-69
2020/12/15 01:15:44;;;;;;;21.97;12.77;;;;;;;2.80;100.00;100634.66;5040688;28;20107;-69
2020/12/15 01:18:10;;;;;;;21.93;12.67;;;;;;;2.78;100.00;100625.94;5037633;28;20052;-69
2020/12/15 01:20:36;;;;;;;21.67;12.20;;;;;;;2.77;100.00;100628.50;5041480;28;20072;-69
2020/12/15 01:23:03;;;;;;;19.77;10.87;;;;;;;2.76;100.00;100625.03;5038849;28;20049;-69
2020/12/15 01:25:31;;;;;;;20.07;12.07;;;;;;;2.73;100.00;100625.00;5035707;28;20044;-69
2020/12/15 01:27:57;;;;;;;16.97;10.37;;;;;;;2.70;100.00;100619.78;5042184;28;20119;-69
2020/12/15 01:30:23;;;;;;;21.47;12.33;;;;;;;2.72;100.00;100623.28;5040482;28;20099;-69
2020/12/15 01:32:49;;;;;;;22.30;13.87;;;;;;;2.76;100.00;100622.44;5042019;28;20041;-69
2020/12/15 01:35:18;;;;;;;20.77;13.07;;;;;;;2.78;100.00;100619.88;5039898;28;20120;-69
2020/12/15 01:37:48;;;;;;;19.57;11.40;;;;;;;2.77;100.00;100620.69;5031041;28;20061;-69
2020/12/15 01:40:14;;;;;;;23.37;12.60;;;;;;;2.78;100.00;100618.13;5025561;22;20045;-68
2020/12/15 01:42:40;;;;;;;21.70;12.43;;;;;;;2.79;100.00;100625.09;5009535;28;20069;-67
2020/12/15 01:45:06;;;;;;;21.57;13.83;;;;;;;2.84;100.00;100614.69;5022406;28;20049;-68
2020/12/15 01:47:33;;;;;;;23.43;12.90;;;;;;;2.82;100.00;100596.41;5012900;28;20037;-67
2020/12/15 01:49:59;;;;;;;22.50;12.60;;;;;;;2.87;100.00;100595.59;4993140;28;20029;-68
2020/12/15 01:52:28;;;;;;;20.17;11.27;;;;;;;2.94;100.00;100586.94;5005818;28;20033;-68
2020/12/15 01:54:55;;;;;;;18.03;11.37;;;;;;;2.92;100.00;100592.16;5006002;28;20037;-68
2020/12/15 01:57:21;;;;;;;21.10;11.70;;;;;;;2.91;100.00;100593.00;5006111;28;20478;-67
2020/12/15 01:59:47;;;;;;;22.37;12.43;;;;;;;2.88;100.00;100585.16;5007573;28;20037;-68
2020/12/15 02:02:14;;;;;;;18.97;11.00;;;;;;;2.88;100.00;100592.13;5008748;28;20095;-68
2020/12/15 02:04:40;;;;;;;22.50;12.87;;;;;;;2.87;100.00;100593.00;5026993;28;20133;-68
2020/12/15 02:07:07;;;;;;;20.77;13.13;;;;;;;2.92;100.00;100592.16;5006468;28;20684;-68
2020/12/15 02:09:33;;;;;;;17.37;10.93;;;;;;;2.94;100.00;100586.94;5002044;28;20049;-67
2020/12/15 02:11:59;;;;;;;21.53;12.40;;;;;;;2.88;100.00;100584.28;5025101;28;20037;-67
2020/12/15 02:14:25;;;;;;;20.57;11.60;;;;;;;2.86;100.00;100581.69;5006933;28;20037;-68
2020/12/15 02:16:53;;;;;;;20.27;11.03;;;;;;;2.85;100.00;100573.81;4990015;28;20038;-67
2020/12/15 02:19:19;;;;;;;18.83;11.50;;;;;;;2.87;100.00;100573.00;5021157;28;20402;-68
2020/12/15 02:21:50;;;;;;;20.37;12.07;;;;;;;2.90;100.00;100578.22;5003898;28;20110;-67
2020/12/15 02:24:16;;;;;;;20.27;12.30;;;;;;;2.93;100.00;100587.81;4992342;28;20651;-68
2020/12/15 02:26:43;;;;;;;19.77;11.57;;;;;;;2.93;100.00;100590.41;5006262;28;20061;-68
2020/12/15 02:29:09;;;;;;;21.70;11.40;;;;;;;2.95;100.00;100591.31;5004034;28;20103;-67
2020/12/15 02:31:35;;;;;;;18.03;11.93;;;;;;;2.89;100.00;100583.44;5021135;28;20041;-67
2020/12/15 02:34:01;;;;;;;19.80;12.70;;;;;;;2.91;100.00;100579.09;5026116;28;20032;-68
2020/12/15 02:36:28;;;;;;;20.63;12.27;;;;;;;2.88;100.00;100579.94;4992344;28;20045;-68
2020/12/15 02:39:03;;;;;;;20.90;12.43;;;;;;;2.87;100.00;100577.34;5003734;28;20491;-68
2020/12/15 02:41:29;;;;;;;;;;;;;;;2.87;100.00;100572.13;5023033;28;20049;-68
2020/12/15 02:43:55;;;;;;;21.10;11.87;;;;;;;2.89;100.00;100578.22;5008560;28;20286;-68
2020/12/15 02:46:21;;;;;;;18.63;11.07;;;;;;;2.94;100.00;100585.19;5006164;28;20091;-68
2020/12/15 02:48:47;;;;;;;17.83;10.33;;;;;;;2.99;100.00;100586.13;5005279;28;20041;-67
2020/12/15 02:51:13;;;;;;;16.40;10.43;;;;;;;2.95;100.00;100573.94;5005252;28;20072;-68
2020/12/15 02:53:40;;;;;;;18.07;11.50;;;;;;;2.87;100.00;100578.19;5024076;28;20102;-68
2020/12/15 02:56:06;;;;;;;19.37;11.63;;;;;;;2.82;100.00;100575.53;5024887;28;20041;-68
2020/12/15 02:58:35;;;;;;;19.57;11.53;;;;;;;2.78;100.00;100581.59;4992041;28;20383;-68
2020/12/15 03:01:02;;;;;;;18.07;11.10;;;;;;;2.74;100.00;100577.19;5025475;28;20037;-68
2020/12/15 03:03:28;;;;;;;16.50;10.23;;;;;;;2.72;100.00;100588.47;5026037;28;20046;-68
2020/12/15 03:05:55;;;;;;;18.23;10.80;;;;;;;2.65;100.00;100595.38;4993199;28;20405;-68
2020/12/15 03:08:21;;;;;;;14.27;9.60;;;;;;;2.58;100.00;100595.28;5022223;28;20568;-68
2020/12/15 03:10:47;;;;;;;20.07;10.90;;;;;;;2.59;100.00;100591.81;5021303;28;20449;-68
2020/12/15 03:13:13;;;;;;;18.07;11.20;;;;;;;2.58;100.00;100593.53;5025836;28;20540;-68
2020/12/15 03:15:39;;;;;;;18.37;10.83;;;;;;;2.62;100.00;100597.06;5025960;28;20041;-68
2020/12/15 03:18:05;;;;;;;16.53;11.13;;;;;;;2.56;100.00;100597.88;5008037;28;20664;-68
2020/12/15 03:20:31;;;;;;;19.77;10.83;;;;;;;2.53;100.00;100603.06;5008016;28;20079;-68
2020/12/15 03:22:58;;;;;;;17.83;10.83;;;;;;;2.50;100.00;100609.09;5007264;28;20041;-68
2020/12/15 03:25:24;;;;;;;19.40;11.97;;;;;;;2.50;100.00;100611.72;5016605;28;20608;-68
2020/12/15 03:27:50;;;;;;;15.43;9.73;;;;;;;2.47;100.00;100614.28;5023022;28;20095;-68
2020/12/15 03:30:16;;;;;;;17.67;10.73;;;;;;;2.50;100.00;100616.06;5004546;28;20045;-68
2020/12/15 03:32:43;;;;;;;15.80;10.87;;;;;;;2.47;100.00;100613.41;5029533;28;20073;-68
2020/12/15 03:35:09;;;;;;;16.17;10.50;;;;;;;2.39;100.00;100597.69;5011039;28;20037;-68
2020/12/15 03:37:35;;;;;;;15.57;10.90;;;;;;;2.33;100.00;100600.22;5011200;28;20107;-68
2020/12/15 03:40:02;;;;;;;16.53;10.53;;;;;;;2.34;100.00;100599.34;5025189;28;20674;-68
2020/12/15 03:42:31;;;;;;;17.53;10.83;;;;;;;2.37;100.00;100590.72;5026667;28;20052;-67
2020/12/15 03:44:57;;;;;;;17.33;10.73;;;;;;;2.31;100.00;100593.25;5028492;28;20038;-68
2020/12/15 03:47:23;;;;;;;20.27;12.30;;;;;;;2.32;100.00;100598.47;5009459;28;20041;-67
2020/12/15 03:49:50;;;;;;;18.30;11.13;;;;;;;2.34;100.00;100601.97;5027029;28;20034;-68
2020/12/15 03:52:16;;;;;;;20.63;12.07;;;;;;;2.40;100.00;100598.56;5029013;28;20045;-68
2020/12/15 03:54:42;;;;;;;16.97;11.50;;;;;;;2.39;100.00;100602.03;5028834;28;20083;-68
2020/12/15 03:57:08;;;;;;;18.00;10.47;;;;;;;2.40;100.00;100601.16;5025929;28;20129;-68
2020/12/15 03:59:34;;;;;;;18.03;10.67;;;;;;;2.46;100.00;100601.25;5010677;28;20041;-68
2020/12/15 04:02:01;;;;;;;17.27;10.30;;;;;;;2.52;100.00;100609.13;5028390;28;20059;-68
2020/12/15 04:04:28;;;;;;;20.77;11.10;;;;;;;2.51;100.00;100612.59;4995323;28;20038;-68
2020/12/15 04:06:54;;;;;;;17.53;10.30;;;;;;;2.46;100.00;100611.69;5028956;28;20045;-68
2020/12/15 04:09:20;;;;;;;16.90;10.17;;;;;;;2.42;100.00;100615.09;5024688;28;20096;-68
2020/12/15 04:11:46;;;;;;;18.83;10.63;;;;;;;2.33;100.00;100610.63;5028116;28;20141;-68
2020/12/15 04:14:12;;;;;;;18.73;10.57;;;;;;;2.25;100.00;100610.53;5030762;28;20127;-68
2020/12/15 04:16:39;;;;;;;18.43;10.90;;;;;;;2.22;100.00;100620.06;5030658;28;20033;-68
2020/12/15 04:19:05;;;;;;;16.90;10.23;;;;;;;2.22;100.00;100604.44;5027100;28;20038;-67
2020/12/15 04:21:32;;;;;;;18.43;10.83;;;;;;;2.23;100.00;100611.38;5010546;28;20728;-68
2020/12/15 04:23:58;;;;;;;20.07;11.20;;;;;;;2.25;100.00;100613.16;5010471;28;20041;-67
2020/12/15 04:26:24;;;;;;;16.40;10.77;;;;;;;2.25;100.00;100617.50;5026875;28;20033;-68
2020/12/15 04:28:50;;;;;;;18.40;10.53;;;;;;;2.22;100.00;100602.69;5007001;28;20049;-68
2020/12/15 04:31:16;;;;;;;19.10;11.27;;;;;;;2.22;100.00;100612.25;5010093;28;20037;-67
2020/12/15 04:33:42;;;;;;;19.13;10.30;;;;;;;2.21;100.00;100615.72;5011252;28;20056;-67
2020/12/15 04:36:08;;;;;;;18.47;11.03;;;;;;;2.19;100.00;100620.91;5027512;28;20095;-67
2020/12/15 04:38:34;;;;;;;18.87;11.40;;;;;;;2.34;100.00;100611.50;4992076;28;20052;-68
2020/12/15 04:41:01;;;;;;;17.70;11.10;;;;;;;2.30;100.00;100607.13;5026833;28;20053;-68
2020/12/15 04:43:30;;;;;;;18.37;11.27;;;;;;;2.24;100.00;100621.81;5025838;28;20037;-68
2020/12/15 04:45:58;;;;;;;17.73;10.97;;;;;;;2.19;100.00;100618.31;4995100;28;20045;-68
2020/12/15 04:48:25;;;;;;;22.80;12.53;;;;;;;2.19;100.00;100607.88;5010183;28;20767;-68
2020/12/15 04:50:58;;;;;;;26.63;15.17;;;;;;;2.13;100.00;100615.63;5028905;28;20091;-68
2020/12/15 04:53:26;;;;;;;22.20;13.27;;;;;;;2.11;100.00;100621.69;5028985;28;20076;-68
2020/12/15 04:55:56;;;;;;;19.53;12.57;;;;;;;2.05;100.00;100609.44;5027946;28;20052;-68
2020/12/15 04:58:23;;;;;;;20.47;12.20;;;;;;;1.98;100.00;100608.47;5026051;28;20053;-68
2020/12/15 05:00:49;;;;;;;18.13;11.10;;;;;;;2.02;100.00;100619.81;5005970;28;20037;-68
2020/12/15 05:03:21;;;;;;;16.70;10.33;;;;;;;1.95;100.00;100618.84;5026472;28;20038;-68
2020/12/15 05:05:49;;;;;;;20.07;11.67;;;;;;;1.93;100.00;100614.47;5001475;28;20116;-68
2020/12/15 05:08:16;;;;;;;17.80;11.37;;;;;;;1.87;100.00;100619.59;5022363;28;20076;-68
2020/12/15 05:10:42;;;;;;;17.67;11.17;;;;;;;1.80;100.00;100628.19;4994693;28;20088;-68
2020/12/15 05:13:20;;;;;;;20.17;11.17;;;;;;;1.74;100.00;100622.88;5011272;28;20041;-68
2020/12/15 05:15:46;;;;;;;18.67;11.37;;;;;;;1.72;100.00;100622.84;5006979;28;20489;-68
2020/12/15 05:18:19;;;;;;;21.80;13.37;;;;;;;1.79;100.00;100611.69;5024379;28;20072;-68
2020/12/15 05:20:45;;;;;;;17.57;10.67;;;;;;;1.77;100.00;100620.34;5000677;28;20049;-68
2020/12/15 05:23:19;;;;;;;18.97;11.53;;;;;;;1.75;100.00;100614.19;5022413;28;20124;-67
2020/12/15 05:25:49;;;;;;;20.50;11.83;;;;;;;1.75;100.00;100609.88;5004197;28;20401;-68
2020/12/15 05:28:15;;;;;;;20.47;12.07;;;;;;;1.81;100.00;100619.50;5025601;28;20037;-68
2020/12/15 05:30:41;;;;;;;22.77;13.37;;;;;;;1.75;100.00;100622.03;5027513;28;20464;-68
2020/12/15 05:33:14;;;;;;;18.63;11.10;;;;;;;1.79;100.00;100616.88;5028713;28;20041;-68
2020/12/15 05:35:40;;;;;;;23.80;12.80;;;;;;;1.69;100.00;100626.31;5013810;28;20825;-67
2020/12/15 05:38:07;;;;;;;21.47;12.60;;;;;;;1.66;100.00;100617.56;5026292;28;20399;-68
2020/12/15 05:40:34;;;;;;;20.27;11.33;;;;;;;1.55;100.00;100624.34;5007081;28;20037;-67
2020/12/15 05:43:04;;;;;;;19.47;11.70;;;;;;;1.54;100.00;100626.06;4985828;28;20073;-68
2020/12/15 05:45:32;;;;;;;20.70;12.10;;;;;;;1.54;100.00;100623.47;5023217;28;20080;-67
2020/12/15 05:48:06;;;;;;;20.10;12.43;;;;;;;1.61;100.00;100632.25;5022921;28;20568;-68
2020/12/15 05:50:32;;;;;;;17.83;11.85;;;;;;;1.63;100.00;100626.19;5001757;28;20041;-68
2020/12/15 05:53:00;;;;;;;19.20;12.17;;;;;;;1.62;100.00;100627.06;5023554;28;20095;-68
2020/12/15 05:55:27;;;;;;;20.70;12.37;;;;;;;1.67;100.00;100624.50;4991530;28;20048;-68
2020/12/15 05:57:55;;;;;;;21.20;12.00;;;;;;;1.72;100.00;100616.78;5005382;28;20033;-68
2020/12/15 06:00:24;;;;;;;24.17;13.00;;;;;;;1.78;100.00;100609.06;5023314;28;20042;-68
2020/12/15 06:02:58;;;;;;;25.00;12.80;;;;;;;1.77;100.00;100615.13;5025128;28;20120;-68
2020/12/15 06:05:28;;;;;;;19.70;13.05;;;;;;;1.73;100.00;100611.59;5004441;28;20041;-68
2020/12/15 06:07:55;;;;;;;20.53;13.07;;;;;;;1.79;100.00;100608.19;5018271;28;20565;-68
2020/12/15 06:10:22;;;;;;;25.10;12.87;;;;;;;1.80;100.00;100621.25;5003807;28;20615;-68
2020/12/15 06:12:49;;;;;;;24.43;13.57;;;;;;;1.83;100.00;100605.63;5023932;28;20049;-68
2020/12/15 06:15:16;;;;;;;21.73;12.00;;;;;;;1.84;100.00;100598.69;5021083;28;20034;-68
2020/12/15 06:17:49;;;;;;;23.60;14.20;;;;;;;1.84;100.00;100590.88;4988802;28;20095;-67
2020/12/15 06:20:19;;;;;;;26.97;14.03;;;;;;;1.88;100.00;100587.50;5019514;28;20108;-68
2020/12/15 06:22:52;;;;;;;24.93;13.80;;;;;;;1.88;100.00;100590.09;5019776;28;20053;-68
2020/12/15 06:25:28;;;;;;;19.40;11.90;;;;;;;1.84;100.00;100586.56;5006846;28;20038;-68
2020/12/15 06:28:03;;;;;;;24.17;13.50;;;;;;;1.91;100.00;100590.13;5003872;28;20045;-67
2020/12/15 06:30:34;;;;;;;21.77;13.53;;;;;;;1.96;100.00;100609.31;5003484;28;20072;-68
2020/12/15 06:33:04;;;;;;;23.50;13.90;;;;;;;2.00;100.00;100603.25;5006250;28;20103;-68
2020/12/15 06:35:31;;;;;;;21.90;12.57;;;;;;;2.00;100.00;100610.22;5005038;28;20037;-68
2020/12/15 06:37:58;;;;;;;24.20;13.27;;;;;;;2.01;100.00;100610.22;5003396;28;20410;-67
2020/12/15 06:40:24;;;;;;;21.00;12.70;;;;;;;2.05;100.00;100604.22;5005394;28;20045;-68
2020/12/15 06:42:53;;;;;;;25.23;12.97;;;;;;;2.09;100.00;100594.69;5020304;28;20131;-68
2020/12/15 06:45:22;;;;;;;23.87;14.13;;;;;;;2.08;100.00;100596.44;5006643;28;20041;-68
2020/12/15 06:47:56;;;;;;;24.20;13.20;;;;;;;2.12;100.00;100600.84;4986365;28;20087;-68
2020/12/15 06:50:23;;;;;;;23.80;13.90;;;;;;;2.15;100.00;100593.03;5008374;28;20045;-68
2020/12/15 06:52:49;;;;;;;24.70;13.53;;;;;;;2.17;100.00;100593.94;5006670;28;20040;-68
2020/12/15 06:55:27;;;;;;;24.83;14.73;;;;;;;2.21;100.00;100581.84;5007000;28;20578;-68
2020/12/15 06:57:59;;;;;;;24.80;14.27;;;;;;;2.29;100.00;100579.31;5016948;28;20053;-67
2020/12/15 07:00:37;;;;;;;25.93;14.67;;;;;;;2.30;100.00;100588.88;5023748;28;20541;-67
2020/12/15 07:03:04;;;;;;;22.30;13.63;;;;;;;2.35;100.00;100588.06;5007923;28;20041;-68
2020/12/15 07:05:31;;;;;;;22.93;13.50;;;;;;;2.36;100.00;100581.16;5024643;28;20418;-68
2020/12/15 07:08:05;;;;;;;24.63;15.47;;;;;;;2.47;100.00;100584.75;5024408;28;20129;-68
2020/12/15 07:10:31;;;;;;;21.48;13.68;;;;;;;2.46;100.00;100577.78;5019415;28;20092;-68
2020/12/15 07:12:59;;;;;;;27.20;14.43;;;;;;;2.47;100.00;100577.78;5018121;28;20055;-68
2020/12/15 07:15:26;;;;;;;24.70;14.33;;;;;;;2.56;100.00;100576.13;5001862;28;20422;-68
2020/12/15 07:17:53;;;;;;;25.50;14.90;;;;;;;2.52;100.00;100575.22;5018360;28;20750;-68
2020/12/15 07:20:20;;;;;;;31.60;18.07;;;;;;;2.52;100.00;100577.81;4999116;28;20432;-68
2020/12/15 07:22:46;;;;;;;25.07;14.80;;;;;;;2.56;100.00;100571.78;5005688;28;20453;-68
2020/12/15 07:25:13;;;;;;;22.20;13.17;;;;;;;2.63;100.00;100568.41;5022747;28;20033;-68
2020/12/15 07:27:39;;;;;;;24.57;14.27;;;;;;;2.68;100.00;100566.69;5010085;28;20097;-68
2020/12/15 07:30:17;;;;;;;25.20;13.97;;;;;;;2.69;100.00;100568.47;5001190;28;20113;-68
2020/12/15 07:32:44;;;;;;;23.57;12.60;;;;;;;2.69;100.00;100571.06;5024870;28;20046;-68
2020/12/15 07:35:13;;;;;;;23.83;13.00;;;;;;;2.72;100.00;100570.22;5025604;28;20041;-68
2020/12/15 07:37:43;;;;;;;83.07;49.80;;;;;;;2.75;100.00;100576.34;5006808;28;20046;-68
2020/12/15 07:40:11;;;;;;;30.37;17.20;;;;;;;2.76;100.00;100583.28;5022700;28;20033;-68
2020/12/15 07:42:37;;;;;;;22.87;13.30;;;;;;;2.78;100.00;100585.94;5025509;28;20045;-68
2020/12/15 07:45:09;;;;;;;22.33;12.80;;;;;;;2.84;100.00;100578.16;5026796;28;20633;-68
2020/12/15 07:47:38;;;;;;;24.20;12.60;;;;;;;2.85;100.00;100586.84;5026675;28;20046;-68
2020/12/15 07:50:05;;;;;;;20.03;12.73;;;;;;;2.88;100.00;100584.28;5007790;28;20156;-68
2020/12/15 07:55:26;;;;;;;23.10;13.03;;;;;;;2.96;99.87;100566.97;4982767;28;20536;-93
2020/12/15 07:57:54;;;;;;;19.20;12.57;;;;;;;3.01;99.39;100562.66;4966340;28;20081;-93
2020/12/15 08:00:21;;;;;;;18.93;12.27;;;;;;;3.12;98.60;100574.06;4964771;28;20037;-93
2020/12/15 08:02:49;;;;;;;21.23;13.20;;;;;;;3.19;97.89;100567.16;4971199;28;20070;-93
2020/12/15 08:05:23;;;;;;;21.27;12.20;;;;;;;3.24;97.90;100568.06;4972298;28;20038;-93
2020/12/15 08:07:52;;;;;;;21.63;13.43;;;;;;;3.27;97.39;100579.41;4972934;28;20042;-94
2020/12/15 08:10:32;;;;;;;21.03;13.07;;;;;;;3.29;97.55;100561.16;4963460;28;20054;-94
2020/12/15 08:13:00;;;;;;;21.80;13.73;;;;;;;3.37;96.15;100575.16;4947034;28;20038;-94
2020/12/15 08:15:27;;;;;;;22.43;12.60;;;;;;;3.38;96.58;100571.66;4945204;28;20046;-93
2020/12/15 08:17:55;;;;;;;20.67;13.73;;;;;;;3.44;96.57;100581.25;4963213;28;20034;-93
2020/12/15 08:20:47;;;;;;;20.17;12.70;;;;;;;3.47;96.83;100591.75;4963327;28;20038;-93
2020/12/15 08:23:14;;;;;;;24.33;13.87;;;;;;;3.53;95.67;100576.09;4962110;28;20054;-93
2020/12/15 08:25:45;;;;;;;23.17;13.03;;;;;;;3.52;95.01;100572.63;4963845;28;20488;-92
2020/12/15 08:28:23;;;;;;;21.47;13.13;;;;;;;3.50;94.95;100573.47;4963188;28;20251;-93
2020/12/15 08:30:50;;;;;;;19.63;11.57;;;;;;;3.56;95.33;100565.69;4945960;28;20053;-92
2020/12/15 08:33:26;;;;;;;20.73;12.40;;;;;;;3.57;94.91;100567.44;4948011;28;20042;-93
2020/12/15 08:35:54;;;;;;;24.73;13.03;;;;;;;3.55;95.26;100571.78;4962351;28;20054;-92
2020/12/15 08:38:25;;;;;;;24.40;14.67;;;;;;;3.57;94.47;100575.28;4949504;28;20042;-93
2020/12/15 08:40:53;;;;;;;24.53;12.93;;;;;;;3.60;94.41;100567.44;4958959;28;20138;-93
2020/12/15 08:43:20;;;;;;;24.27;14.80;;;;;;;3.59;95.00;100568.31;4944465;28;20050;-93
2020/12/15 08:45:46;;;;;;;22.30;13.50;;;;;;;3.61;95.08;100566.56;4947511;28;20046;-93
2020/12/15 08:48:20;;;;;;;23.83;14.67;;;;;;;3.65;95.01;100568.34;4946242;28;20584;-93
2020/12/15 08:50:46;;;;;;;;;;;;;;;3.76;93.90;100571.03;4958859;28;20054;-93
2020/12/15 08:53:16;;;;;;;24.60;13.40;;;;;;;3.76;93.67;100573.63;4978824;28;19921;-93
2020/12/15 08:55:44;;;;;;;23.87;14.33;;;;;;;3.74;94.22;100572.75;4961600;28;20043;-93
2020/12/15 08:58:27;;;;;;;20.67;12.47;;;;;;;3.83;94.08;100580.66;4979662;28;20145;-93
2020/12/15 09:00:54;;;;;;;26.73;13.57;;;;;;;3.85;93.84;100578.91;4959119;28;20050;-92
2020/12/15 09:03:20;;;;;;;23.43;12.87;;;;;;;3.90;93.67;100574.59;4969726;28;20100;-94
2020/12/15 09:05:52;;;;;;;20.97;12.73;;;;;;;3.97;93.42;100562.44;4960125;28;20054;-92
2020/12/15 09:08:26;;;;;;;22.60;12.70;;;;;;;3.98;92.51;100556.34;4961446;28;20038;-93
2020/12/15 09:10:54;;;;;;;21.52;13.57;;;;;;;4.02;92.01;100563.31;4970792;28;20051;-93
2020/12/15 09:13:20;;;;;;;19.97;12.70;;;;;;;4.05;92.26;100558.13;4975496;28;20489;-93
2020/12/15 09:15:54;;;;;;;20.70;13.70;;;;;;;4.04;92.32;100565.09;4961221;28;20050;-93
2020/12/15 09:18:31;;;;;;;21.90;12.77;;;;;;;4.10;92.20;100559.00;4960003;28;20046;-93
2020/12/15 09:21:18;;;;;;;22.37;13.20;;;;;;;4.06;91.78;100563.34;4972541;28;20047;-93
2020/12/15 09:23:52;;;;;;;20.67;11.90;;;;;;;4.15;91.23;100557.28;4959608;28;20051;-93
2020/12/15 09:26:44;;;;;;;24.02;14.35;;;;;;;4.12;91.50;100562.47;4962166;28;20053;-94
2020/12/15 09:29:11;;;;;;;19.57;12.33;;;;;;;4.17;91.00;100556.41;4962274;28;20034;-93
2020/12/15 09:31:43;;;;;;;23.20;12.83;;;;;;;4.27;91.07;100561.69;4943501;28;20046;-93
2020/12/15 09:34:09;;;;;;;20.17;13.27;;;;;;;4.31;90.80;100573.91;4957580;28;20553;-93
2020/12/15 09:36:36;;;;;;;18.13;12.27;;;;;;;4.35;90.90;100581.75;4946481;28;20042;-93
2020/12/15 09:39:03;;;;;;;18.67;12.90;;;;;;;4.40;91.07;100572.19;4948387;28;20181;-92
2020/12/15 09:41:35;;;;;;;19.67;11.73;;;;;;;4.44;91.12;100563.47;4958796;28;20054;-91
2020/12/15 09:44:02;;;;;;;17.93;11.93;;;;;;;4.49;90.68;100556.53;4945000;28;20046;-93
2020/12/15 09:46:29;;;;;;;21.07;12.57;;;;;;;4.55;89.65;100557.41;4960367;28;20038;-92
2020/12/15 09:48:55;;;;;;;21.33;12.73;;;;;;;4.51;89.13;100551.28;4958101;28;20090;-93
2020/12/15 09:51:21;;;;;;;22.47;12.73;;;;;;;4.41;88.51;100553.00;4944574;28;20049;-92
2020/12/15 09:53:49;;;;;;;20.67;12.27;;;;;;;4.39;89.57;100560.00;4955498;28;20522;-93
2020/12/15 09:56:16;;;;;;;19.13;12.33;;;;;;;4.50;88.90;100558.25;4976558;28;20038;-93
2020/12/15 09:58:47;;;;;;;19.50;12.63;;;;;;;4.52;89.33;100566.97;4973560;28;20042;-93
2020/12/15 10:01:22;;;;;;;18.80;12.27;;;;;;;4.55;89.31;100560.91;4957716;28;20047;-93
2020/12/15 10:03:49;;;;;;;20.87;12.70;;;;;;;4.50;89.04;100547.81;4944380;28;20078;-93
2020/12/15 10:06:16;;;;;;;21.20;12.63;;;;;;;4.56;88.60;100564.41;4963016;28;20050;-92
2020/12/15 10:08:43;;;;;;;20.50;12.67;;;;;;;4.62;88.70;100562.63;4962798;28;20077;-93
2020/12/15 10:11:16;;;;;;;19.03;12.00;;;;;;;4.71;88.41;100554.84;4943445;28;20039;-93
2020/12/15 10:13:43;;;;;;;19.38;12.68;;;;;;;4.71;88.12;100538.25;4978647;28;20047;-92
2020/12/15 10:16:10;;;;;;;18.67;11.83;;;;;;;4.86;87.32;100543.50;4943962;28;20042;-93
2020/12/15 10:18:37;;;;;;;20.57;11.83;;;;;;;4.86;87.25;100533.03;4945937;28;20042;-92
2020/12/15 10:21:03;;;;;;;20.80;13.10;;;;;;;4.84;86.87;100536.53;4959690;28;20073;-92
2020/12/15 10:23:35;;;;;;;17.47;11.17;;;;;;;4.87;87.61;100537.38;4966847;28;20068;-93
2020/12/15 10:26:03;;;;;;;17.67;11.87;;;;;;;4.87;87.43;100534.75;4959115;28;20447;-93
2020/12/15 10:28:30;;;;;;;17.77;11.57;;;;;;;4.88;87.14;100535.66;4971447;28;20039;-94
2020/12/15 10:30:56;;;;;;;18.20;11.23;;;;;;;4.87;87.15;100537.38;4952608;28;20096;-92
2020/12/15 10:33:22;;;;;;;16.40;10.30;;;;;;;4.86;87.86;100535.63;4979063;28;20124;-93
2020/12/15 10:36:03;;;;;;;17.77;10.90;;;;;;;4.86;87.63;100535.63;4953579;28;20035;-93
2020/12/15 10:38:30;;;;;;;18.80;11.63;;;;;;;4.89;87.22;100546.13;4963463;28;20046;-93
2020/12/15 10:40:57;;;;;;;20.57;12.73;;;;;;;4.88;87.05;100541.78;4951375;28;20051;-93
2020/12/15 10:43:24;;;;;;;16.17;11.43;;;;;;;4.91;87.40;100540.88;4942033;28;20050;-93
2020/12/15 10:45:50;;;;;;;16.73;11.30;;;;;;;4.91;87.43;100541.75;4964614;28;20042;-93
2020/12/15 10:48:16;;;;;;;16.53;10.77;;;;;;;4.95;87.36;100548.72;4972357;28;20462;-93
2020/12/15 10:50:43;;;;;;;17.77;11.03;;;;;;;4.93;86.12;100545.25;4962003;28;20050;-93
2020/12/15 10:53:10;;;;;;;18.77;11.97;;;;;;;4.93;85.21;100541.75;4943783;28;20069;-92
2020/12/15 10:55:37;;;;;;;17.73;10.97;;;;;;;4.96;86.31;100544.38;4974856;28;20038;-92
2020/12/15 10:58:04;;;;;;;16.63;10.77;;;;;;;5.02;86.44;100540.00;4953982;28;20050;-93
2020/12/15 11:00:31;;;;;;;18.87;12.03;;;;;;;5.06;86.34;100541.78;4982293;28;20049;-93
2020/12/15 11:02:57;;;;;;;17.53;11.57;;;;;;;5.10;85.97;100534.78;4955097;28;20057;-93
2020/12/15 11:05:49;;;;;;;16.57;11.10;;;;;;;5.21;85.94;100534.75;4942251;28;20057;-93
2020/12/15 11:08:15;;;;;;;17.63;11.50;;;;;;;5.28;85.32;100529.53;4974747;28;20057;-92
2020/12/15 11:10:42;;;;;;;17.77;11.37;;;;;;;5.28;84.47;100523.41;4947428;28;20168;-93
2020/12/15 11:13:08;;;;;;;19.73;11.80;;;;;;;5.26;83.84;100533.03;4945127;28;20444;-93
2020/12/15 11:15:34;;;;;;;19.60;12.20;;;;;;;5.27;84.94;100519.91;4942299;28;20046;-93
2020/12/15 11:18:01;;;;;;;16.17;11.30;;;;;;;5.32;83.79;100527.78;4942577;28;20038;-93
2020/12/15 11:20:27;;;;;;;16.57;11.20;;;;;;;5.37;84.23;100526.00;4967910;28;20045;-92